Flight Track Log - Related Links

Times and Time Zones

All times are in EDT time to prevent confusion due to time zone crossing. See the AAY808 flight status page for this flight to view local times or setup timezone preferences in your user account.

Time Position Orientation Groundspeed Altitude Reporting Facility
EDT Latitude Longitude Course Direction KTS MPH feet Rate Location/Type
Sat 04:44:18 PM 27.9167 -82.6833 North 172 198 600  Level Tampa TRACON
Sat 04:46:34 PM 28.0539 -82.6786 North 254 292 4,800 2,235 Climbing Jacksonville Center
Sat 04:47:34 PM 28.1331 -82.6619 11° North 266 306 7,900 2,800 Climbing Jacksonville Center
Sat 04:48:34 PM 28.2103 -82.6453 11° North 277 319 10,400 1,800 Climbing Jacksonville Center
Sat 04:49:34 PM 28.3042 -82.6308 North 303 349 11,500 1,600 Climbing Jacksonville Center
Sat 04:50:34 PM 28.4106 -82.6283 North 347 399 13,600 2,200 Climbing Jacksonville Center
Sat 04:51:34 PM 28.5294 -82.6208 North 386 444 15,900 2,350 Climbing Jacksonville Center
Sat 04:52:34 PM 28.6442 -82.6158 North 405 466 18,300 2,150 Climbing Jacksonville Center
Sat 04:53:34 PM 28.7589 -82.6203 358° North 411 473 20,200 1,850 Climbing Jacksonville Center
Sat 04:54:34 PM 28.8822 -82.6294 356° North 419 482 22,000 1,800 Climbing Jacksonville Center
Sat 04:55:34 PM 29.0033 -82.6361 357° North 425 489 23,800 1,850 Climbing Jacksonville Center
Sat 04:56:34 PM 29.1306 -82.6381 359° North 441 507 25,700 1,850 Climbing Jacksonville Center
Sat 04:57:34 PM 29.2517 -82.6331 North 441 507 27,500 1,550 Climbing Jacksonville Center
Sat 04:58:34 PM 29.3728 -82.6256 North 441 507 28,800 1,450 Climbing Jacksonville Center
Sat 04:59:34 PM 29.4917 -82.6181 North 441 507 30,400 1,100 Climbing Jacksonville Center
Sat 05:00:34 PM 29.6128 -82.6083 North 436 502 31,000 300 Climbing Jacksonville Center
Sat 05:01:34 PM 29.7442 -82.6031 North 436 502 31,000 -50 Level Jacksonville Center
Sat 05:02:34 PM 29.8633 -82.5956 North 431 496 30,900 -50 Descending Jacksonville Center
Sat 05:03:34 PM 29.9822 -82.5928 North 431 496 30,900  Level Jacksonville Center
Sat 05:04:34 PM 30.0886 -82.5900 North 426 490 30,900  Level Jacksonville Center
Sat 05:05:34 PM 30.2036 -82.5825 North 419 482 30,900  Level Jacksonville Center
Sat 05:06:34 PM 30.3203 -82.5772 North 419 482 30,900  Level Jacksonville Center
Sat 05:07:34 PM 30.4478 -82.5697 North 419 482 30,900 50 Level Jacksonville Center
Sat 05:08:34 PM 30.5647 -82.5644 North 419 482 31,000  Climbing Jacksonville Center
Sat 05:09:34 PM 30.6817 -82.5592 North 419 482 30,900 -50 Descending Jacksonville Center
Sat 05:10:34 PM 30.7986 -82.5517 North 419 482 30,900  Level Jacksonville Center
Sat 05:11:34 PM 30.9153 -82.5464 North 419 482 30,900  Level Jacksonville Center
Sat 05:12:34 PM 31.0344 -82.5411 North 419 482 30,900  Level Jacksonville Center
Sat 05:13:34 PM 31.1514 -82.5308 North 419 482 30,900  Level Jacksonville Center
Sat 05:14:34 PM 31.2661 -82.5281 North 419 482 30,900 50 Level Jacksonville Center
Sat 05:15:34 PM 31.3725 -82.5178 North 419 482 31,000 32 Climbing Jacksonville Center
Sat 05:17:40 PM 31.6228 -82.5367 356° North 415 478 31,000  Level Atlanta Center
Sat 05:18:40 PM 31.7317 -82.5714 345° North 408 470 31,000  Level Atlanta Center
Sat 05:19:40 PM 31.8386 -82.6086 344° North 402 463 31,000  Level Atlanta Center
Sat 05:20:40 PM 31.9453 -82.6439 344° North 402 463 31,000  Level Atlanta Center
Sat 05:21:40 PM 32.0522 -82.6814 343° North 402 463 31,000 350 Level Atlanta Center
Sat 05:22:40 PM 32.1592 -82.7164 345° North 402 463 31,700 500 Climbing Atlanta Center
Sat 05:23:40 PM 32.2658 -82.7492 345° North 402 463 32,000 150 Climbing Atlanta Center
Sat 05:24:40 PM 32.3728 -82.7869 343° North 402 463 32,000  Level Atlanta Center
Sat 05:25:40 PM 32.4794 -82.8225 344° North 402 463 32,000  Level Atlanta Center
Sat 05:26:40 PM 32.5717 -82.8533 344° North 392 451 32,000  Level Atlanta Center
Sat 05:27:40 PM 32.6783 -82.8914 343° North 387 445 32,000  Level Atlanta Center
Sat 05:28:40 PM 32.7831 -82.9244 345° North 387 445 32,000  Level Atlanta Center
Sat 05:29:41 PM 32.8878 -82.9603 344° North 387 445 32,000  Level Atlanta Center
Sat 05:30:40 PM 32.9944 -82.9986 343° North 387 445 32,000  Level Atlanta Center
Sat 05:31:40 PM 33.1117 -83.0394 344° North 387 445 32,000  Level Atlanta Center
Sat 05:32:40 PM 33.2144 -83.0778 343° North 387 445 32,000  Level Atlanta Center
Sat 05:33:40 PM 33.3211 -83.1139 344° North 393 452 32,000  Level Atlanta Center
Sat 05:34:40 PM 33.4258 -83.1478 345° North 387 445 32,000  Level Atlanta Center
Sat 05:35:40 PM 33.5303 -83.1864 343° North 392 451 32,000  Level Atlanta Center
Sat 05:36:40 PM 33.6225 -83.2156 345° North 392 451 32,000  Level Atlanta Center
Sat 05:37:40 PM 33.7311 -83.2519 344° North 392 451 32,000  Level Atlanta Center
Sat 05:38:40 PM 33.8336 -83.2886 343° North 386 444 32,000  Level Atlanta Center
Sat 05:39:40 PM 33.9383 -83.3228 345° North 386 444 32,000  Level Atlanta Center
Sat 05:40:40 PM 34.0450 -83.3544 346° North 386 444 32,000  Level Atlanta Center
Sat 05:41:40 PM 34.1536 -83.3811 349° North 386 444 32,000  Level Atlanta Center
Sat 05:42:40 PM 34.2603 -83.4131 346° North 386 444 32,000  Level Atlanta Center
Sat 05:43:40 PM 34.3667 -83.4422 347° North 386 444 32,000  Level Atlanta Center
Sat 05:44:40 PM 34.4733 -83.4719 347° North 392 451 32,000  Level Atlanta Center
Sat 05:45:40 PM 34.5861 -83.5039 347° North 392 451 32,000  Level Atlanta Center
Sat 05:46:40 PM 34.6822 -83.5386 343° North 392 451 32,000  Level Atlanta Center
Sat 05:47:40 PM 34.8014 -83.5658 349° North 392 451 32,000  Level Atlanta Center
Sat 05:48:40 PM 34.9081 -83.5981 346° North 392 451 32,000  Level Atlanta Center
Sat 05:49:40 PM 35.0019 -83.6281 345° North 392 451 32,000  Level Atlanta Center
Sat 05:50:40 PM 35.1083 -83.6631 345° North 392 451 32,000  Level Atlanta Center
Sat 05:51:40 PM 35.2150 -83.6931 347° North 392 451 32,000  Level Atlanta Center
Sat 05:52:40 PM 35.3214 -83.7231 347° North 392 451 32,000  Level Atlanta Center
Sat 05:53:40 PM 35.4239 -83.7533 346° North 392 451 32,000  Level Atlanta Center
Sat 05:54:40 PM 35.5303 -83.7836 347° North 392 451 32,000  Level Atlanta Center
Sat 05:55:40 PM 35.6347 -83.8139 347° North 392 451 32,000  Level Atlanta Center
Sat 05:56:40 PM 35.7411 -83.8442 347° North 392 451 32,000  Level Atlanta Center
Sat 05:57:40 PM 35.8475 -83.8800 345° North 392 451 32,000  Level Atlanta Center
Sat 05:58:40 PM 35.9539 -83.9053 349° North 392 451 32,000  Level Atlanta Center
Sat 06:00:35 PM 36.1700 -83.9333 354° North 393 452 32,000  Level Indianapolis Center
Sat 06:01:37 PM 36.2781 -83.9500 353° North 393 452 32,000  Level Indianapolis Center
Sat 06:02:39 PM 36.3875 -83.9658 353° North 393 452 32,000  Level Indianapolis Center
Sat 06:03:40 PM 36.4981 -83.9817 353° North 394 453 32,000  Level Indianapolis Center
Sat 06:04:42 PM 36.6094 -83.9992 353° North 399 459 32,000  Level Indianapolis Center
Sat 06:05:44 PM 36.7400 -84.0192 353° North 400 460 32,000  Level Indianapolis Center
Sat 06:06:45 PM 36.8494 -84.0358 353° North 400 460 32,000  Level Indianapolis Center
Sat 06:07:47 PM 36.9625 -84.0525 353° North 400 460 32,000  Level Indianapolis Center
Sat 06:08:48 PM 37.0744 -84.0697 353° North 401 461 32,000  Level Indianapolis Center
Sat 06:09:50 PM 37.1844 -84.0867 353° North 401 461 32,000  Level Indianapolis Center
Sat 06:10:51 PM 37.2942 -84.1042 353° North 400 460 32,000  Level Indianapolis Center
Sat 06:11:53 PM 37.4058 -84.1208 353° North 400 460 32,000  Level Indianapolis Center
Sat 06:12:55 PM 37.5172 -84.1378 353° North 399 459 32,000  Level Indianapolis Center
Sat 06:13:56 PM 37.6461 -84.1569 353° North 399 459 32,000  Level Indianapolis Center
Sat 06:14:58 PM 37.7561 -84.1742 353° North 399 459 32,000  Level Indianapolis Center
Sat 06:15:59 PM 37.8656 -84.1917 353° North 399 459 32,000  Level Indianapolis Center
Sat 06:17:01 PM 37.9783 -84.2083 353° North 400 460 32,000  Level Indianapolis Center
Sat 06:18:02 PM 38.0875 -84.2250 353° North 400 460 32,000  Level Indianapolis Center
Sat 06:19:04 PM 38.1986 -84.2419 353° North 400 460 32,000  Level Indianapolis Center
Sat 06:20:06 PM 38.3081 -84.2589 353° North 398 458 32,000  Level Indianapolis Center
Sat 06:21:07 PM 38.4183 -84.2769 353° North 398 458 32,000  Level Indianapolis Center
Sat 06:22:09 PM 38.5481 -84.2953 354° North 399 459 32,000  Level Indianapolis Center
Sat 06:23:11 PM 38.6592 -84.3100 354° North 399 459 32,000  Level Indianapolis Center
Sat 06:24:12 PM 38.7747 -84.2883 North 411 473 32,000  Level Indianapolis Center
Sat 06:25:14 PM 38.8894 -84.2714 North 416 479 32,000  Level Indianapolis Center
Sat 06:26:15 PM 39.0011 -84.2533 North 410 472 32,000  Level Indianapolis Center
Sat 06:27:17 PM 39.1128 -84.2358 North 408 470 32,000  Level Indianapolis Center
Sat 06:28:18 PM 39.2236 -84.2169 North 406 467 32,000 -146 Level Indianapolis Center
Sat 06:29:20 PM 39.3358 -84.1994 North 405 466 31,700 -1,561 Descending Indianapolis Center
Sat 06:30:21 PM 39.4475 -84.1831 North 405 466 28,800 -2,780 Descending Indianapolis Center
Sat 06:31:23 PM 39.5811 -84.1603 North 405 466 26,000 -1,854 Descending Indianapolis Center
Sat 06:32:24 PM 39.6872 -84.1433 North 392 451 25,000 -829 Descending Indianapolis Center
Sat 06:33:26 PM 39.7928 -84.1267 North 385 443 24,300 -829 Descending Indianapolis Center
Sat 06:34:27 PM 39.8994 -84.1078 North 385 443 23,300 -976 Descending Indianapolis Center
Sat 06:35:29 PM 40.0039 -84.0897 North 382 440 22,300 -976 Descending Indianapolis Center
Sat 06:36:30 PM 40.1078 -84.0733 North 381 438 21,300 -976 Descending Indianapolis Center
Sat 06:37:32 PM 40.2103 -84.0561 North 375 432 20,300 -976 Descending Indianapolis Center
Sat 06:38:33 PM 40.3092 -84.0367 North 364 419 19,300 -976 Descending Indianapolis Center
Sat 06:39:35 PM 40.4058 -84.0017 15° North 360 414 18,300 -976 Descending Indianapolis Center
Sat 06:40:36 PM 40.5014 -83.9692 14° North 359 413 17,300 -639 Descending Indianapolis Center
Sat 06:41:37 PM 40.6131 -83.9306 15° North 352 405 17,000 -146 Descending Indianapolis Center
Sat 06:42:39 PM 40.7058 -83.8989 15° North 348 400 17,000  Level Indianapolis Center
Sat 06:43:40 PM 40.7983 -83.8664 15° North 347 399 17,000 -146 Level Indianapolis Center
Sat 06:44:42 PM 40.8903 -83.8347 15° North 345 397 16,700 -1,024 Descending Indianapolis Center
Sat 06:45:43 PM 40.9842 -83.8025 15° North 345 397 14,900 -2,115 Descending Indianapolis Center
Sat 06:46:44 PM 41.0833 -83.7661 15° North 338 389 12,400 -2,410 Descending Indianapolis Center
Sat 06:47:45 PM 41.1672 -83.7383 14° North 315 362 10,000 -2,000 Descending Indianapolis Center
Sat 06:48:47 PM 41.2422 -83.7408 359° North 278 320 8,300 -1,659 Descending Indianapolis Center
Sat 06:49:48 PM 41.3083 -83.7800 336° Northwest 259 298 6,600 -1,770 Descending Indianapolis Center
Sat 06:50:49 PM 41.3747 -83.8172 337° Northwest 259 298 4,700 -1,180 Descending Indianapolis Center
Sat 06:51:50 PM 41.4303 -83.8533 334° Northwest 258 297 4,200 -904 Descending Indianapolis Center
Sat 06:53:15 PM 41.5261 -83.9081 337° Northwest 248 285 2,500 -857 Descending Cleveland Center
Sat 06:54:17 PM 41.5656 -83.9142 353° North 218 251 2,100 -387 Descending Cleveland Center

Login

Don't have an account? Register now (free) for customized features, flight alerts, and more!